createdAt,value
2023-03-12T00:01:34.607Z,6.13
2023-03-12T00:04:05.575Z,6.93
2023-03-12T00:06:35.889Z,6.00
2023-03-12T00:09:06.583Z,5.97
2023-03-12T00:11:37.004Z,6.57
2023-03-12T00:14:07.569Z,7.38
2023-03-12T00:16:40.568Z,6.60
2023-03-12T00:19:11.023Z,6.35
2023-03-12T00:21:41.599Z,6.53
2023-03-12T00:24:12.116Z,6.03
2023-03-12T00:26:47.286Z,5.65
2023-03-12T00:29:19.338Z,7.38
2023-03-12T00:31:57.356Z,5.45
2023-03-12T00:34:29.323Z,5.60
2023-03-12T00:36:59.665Z,6.40
2023-03-12T00:39:30.062Z,6.30
2023-03-12T00:42:00.516Z,6.40
2023-03-12T00:44:31.054Z,6.78
2023-03-12T00:47:03.967Z,6.43
2023-03-12T00:49:34.309Z,5.88
2023-03-12T00:52:04.615Z,5.15
2023-03-12T00:54:35.155Z,5.90
2023-03-12T00:57:05.499Z,5.50
2023-03-12T00:59:40.580Z,6.25
2023-03-12T01:02:14.088Z,7.18
2023-03-12T01:04:44.448Z,7.25
2023-03-12T01:07:14.850Z,7.78
2023-03-12T01:09:45.302Z,6.63
2023-03-12T01:12:15.661Z,6.28
2023-03-12T01:14:45.975Z,6.30
2023-03-12T01:17:18.982Z,7.45
2023-03-12T01:19:49.290Z,5.97
2023-03-12T01:22:19.673Z,6.20
2023-03-12T01:24:50.185Z,6.03
2023-03-12T01:27:20.549Z,7.07
2023-03-12T01:29:50.922Z,5.13
2023-03-12T01:32:23.937Z,5.40
2023-03-12T01:34:54.327Z,5.72
2023-03-12T01:37:24.874Z,6.47
2023-03-12T01:39:55.289Z,5.55
2023-03-12T01:42:25.617Z,5.60
2023-03-12T01:44:58.461Z,6.55
2023-03-12T01:47:36.318Z,6.55
2023-03-12T01:50:11.817Z,6.30
2023-03-12T01:52:43.118Z,6.75
2023-03-12T01:55:16.385Z,8.63
2023-03-12T01:57:51.942Z,11.38
2023-03-12T02:00:25.322Z,8.80
2023-03-12T02:03:06.160Z,7.88
2023-03-12T02:05:43.833Z,6.57
2023-03-12T02:08:16.020Z,5.50
2023-03-12T02:10:46.759Z,6.43
2023-03-12T02:13:17.724Z,6.75
2023-03-12T02:15:50.439Z,5.70
2023-03-12T02:18:24.591Z,5.50
2023-03-12T02:21:01.961Z,5.22
2023-03-12T02:23:36.499Z,6.28
2023-03-12T02:26:10.754Z,6.38
2023-03-12T02:28:45.999Z,6.25
2023-03-12T02:31:20.689Z,7.57
2023-03-12T02:33:52.986Z,7.65
2023-03-12T02:36:23.584Z,5.32
2023-03-12T02:38:55.392Z,7.22
2023-03-12T02:41:31.743Z,6.47
2023-03-12T02:44:05.749Z,6.53
2023-03-12T02:46:41.149Z,6.55
2023-03-12T02:49:12.702Z,4.97
2023-03-12T02:51:44.664Z,6.00
2023-03-12T02:54:17.275Z,6.35
2023-03-12T02:56:50.556Z,7.55
2023-03-12T02:59:25.973Z,6.30
2023-03-12T03:02:01.245Z,7.07
2023-03-12T03:04:35.007Z,6.32
2023-03-12T03:07:06.329Z,6.15
2023-03-12T03:09:37.208Z,4.90
2023-03-12T03:12:11.519Z,6.20
2023-03-12T03:14:42.367Z,6.00
2023-03-12T03:17:13.266Z,5.22
2023-03-12T03:19:44.251Z,5.20
2023-03-12T03:22:15.048Z,4.82
2023-03-12T03:24:46.238Z,4.97
2023-03-12T03:27:19.712Z,4.28
2023-03-12T03:32:20.457Z,5.80
2023-03-12T03:34:51.300Z,4.40
2023-03-12T03:37:22.775Z,4.72
2023-03-12T03:39:54.230Z,4.25
2023-03-12T03:42:27.884Z,3.70
2023-03-12T03:44:58.644Z,4.72
2023-03-12T03:47:29.526Z,4.15
2023-03-12T03:50:00.471Z,4.70
2023-03-12T03:52:31.348Z,4.45
2023-03-12T03:55:02.598Z,5.30
2023-03-12T03:57:37.286Z,4.20
2023-03-12T04:00:13.264Z,5.40
2023-03-12T04:02:48.196Z,4.63
2023-03-12T04:05:20.912Z,5.18
2023-03-12T04:07:55.021Z,5.25
2023-03-12T04:10:28.534Z,4.65
2023-03-12T04:13:01.636Z,4.57
2023-03-12T04:15:32.176Z,4.35
2023-03-12T04:18:02.986Z,5.38
2023-03-12T04:20:33.651Z,4.97
2023-03-12T04:23:04.066Z,5.13
2023-03-12T04:25:34.409Z,4.20
2023-03-12T04:28:08.225Z,5.07
2023-03-12T04:30:41.053Z,5.78
2023-03-12T04:33:14.415Z,4.90
2023-03-12T04:35:53.124Z,4.97
2023-03-12T04:38:26.020Z,4.88
2023-03-12T04:41:03.953Z,4.15
2023-03-12T04:43:37.187Z,4.22
2023-03-12T04:46:08.953Z,4.75
2023-03-12T04:48:40.280Z,4.15
2023-03-12T04:51:10.791Z,5.28
2023-03-12T04:53:41.499Z,5.32
2023-03-12T04:56:13.786Z,4.45
2023-03-12T04:58:47.952Z,4.30
2023-03-12T05:01:26.835Z,4.30
2023-03-12T05:03:58.019Z,3.70
2023-03-12T05:06:29.129Z,4.18
2023-03-12T05:09:00.475Z,5.32
2023-03-12T05:11:31.339Z,4.00
2023-03-12T05:14:04.714Z,4.10
2023-03-12T05:16:35.274Z,4.05
2023-03-12T05:19:05.884Z,4.45
2023-03-12T05:21:36.679Z,4.95
2023-03-12T05:24:08.014Z,4.70
2023-03-12T05:26:38.884Z,3.95
2023-03-12T05:29:18.358Z,4.65
2023-03-12T05:31:50.015Z,3.53
2023-03-12T05:34:20.580Z,3.47
2023-03-12T05:36:50.993Z,4.25
2023-03-12T05:39:25.942Z,4.90
2023-03-12T05:41:57.493Z,3.65
2023-03-12T05:44:31.262Z,4.65
2023-03-12T05:47:01.913Z,3.45
2023-03-12T05:49:32.277Z,3.25
2023-03-12T05:52:02.836Z,3.67
2023-03-12T05:54:36.398Z,3.95
2023-03-12T05:57:08.818Z,4.32
2023-03-12T05:59:41.864Z,4.82
2023-03-12T06:02:12.925Z,5.75
2023-03-12T06:04:44.490Z,4.32
2023-03-12T06:07:15.591Z,4.45
2023-03-12T06:09:45.819Z,4.88
2023-03-12T06:12:17.469Z,4.18
2023-03-12T06:14:51.049Z,5.13
2023-03-12T06:17:22.523Z,5.47
2023-03-12T06:19:54.238Z,4.32
2023-03-12T06:22:24.808Z,4.45
2023-03-12T06:24:55.148Z,4.25
2023-03-12T06:27:25.767Z,4.43
2023-03-12T06:29:58.800Z,4.15
2023-03-12T06:32:29.427Z,4.43
2023-03-12T06:35:00.843Z,5.88
2023-03-12T06:37:31.284Z,5.10
2023-03-12T06:40:01.633Z,4.82
2023-03-12T06:42:32.451Z,4.32
2023-03-12T06:45:05.343Z,4.65
2023-03-12T06:47:35.912Z,5.20
2023-03-12T06:50:06.620Z,4.90
2023-03-12T06:52:37.082Z,5.20
2023-03-12T06:55:08.322Z,4.07
2023-03-12T06:57:38.685Z,5.20
2023-03-12T07:00:13.608Z,4.80
2023-03-12T07:02:43.894Z,4.32
2023-03-12T07:05:14.230Z,4.90
2023-03-12T07:07:44.494Z,4.70
2023-03-12T07:10:15.251Z,4.80
2023-03-12T07:12:46.067Z,5.72
2023-03-12T07:15:19.288Z,5.68
2023-03-12T07:17:49.575Z,5.20
2023-03-12T07:20:20.356Z,4.65
2023-03-12T07:22:50.677Z,5.25
2023-03-12T07:25:21.075Z,5.63
2023-03-12T07:27:51.372Z,5.53
2023-03-12T07:30:24.847Z,6.40
2023-03-12T07:32:55.326Z,7.25
2023-03-12T07:35:25.774Z,6.55
2023-03-12T07:37:56.272Z,5.78
2023-03-12T07:40:26.618Z,5.97
2023-03-12T07:42:57.211Z,5.70
2023-03-12T07:45:30.275Z,6.90
2023-03-12T07:48:00.678Z,5.25
2023-03-12T07:50:31.069Z,6.78
2023-03-12T07:53:01.805Z,5.82
2023-03-12T07:55:32.972Z,7.43
2023-03-12T07:58:03.755Z,7.05
2023-03-12T08:00:36.739Z,5.50
2023-03-12T08:03:07.358Z,8.43
2023-03-12T08:05:37.911Z,6.88
2023-03-12T08:08:08.843Z,6.45
2023-03-12T08:10:40.152Z,6.57
2023-03-12T08:13:10.694Z,5.75
2023-03-12T08:15:44.943Z,4.75
2023-03-12T08:18:15.315Z,5.10
2023-03-12T08:20:45.627Z,4.80
2023-03-12T08:23:15.944Z,5.13
2023-03-12T08:25:48.210Z,5.32
2023-03-12T08:28:19.594Z,6.00
2023-03-12T08:30:55.815Z,4.95
2023-03-12T08:33:26.251Z,6.15
2023-03-12T08:35:56.893Z,5.82
2023-03-12T08:38:27.922Z,6.78
2023-03-12T08:41:00.568Z,4.65
2023-03-12T08:43:31.490Z,6.60
2023-03-12T08:46:06.074Z,5.78
2023-03-12T08:48:36.483Z,4.57
2023-03-12T08:51:07.695Z,4.68
2023-03-12T08:53:39.120Z,5.35
2023-03-12T08:56:10.391Z,5.70
2023-03-12T08:58:40.718Z,5.15
2023-03-12T09:01:15.736Z,5.35
2023-03-12T09:03:47.601Z,4.57
2023-03-12T09:06:19.545Z,6.35
2023-03-12T09:08:51.779Z,4.60
2023-03-12T09:11:22.075Z,5.00
2023-03-12T09:14:28.103Z,5.15
2023-03-12T09:16:45.372Z,5.13
2023-03-12T09:19:15.847Z,4.60
2023-03-12T09:21:46.374Z,6.00
2023-03-12T09:24:16.857Z,6.47
2023-03-12T09:26:47.385Z,5.07
2023-03-12T09:29:17.688Z,5.57
2023-03-12T09:31:50.693Z,4.95
2023-03-12T09:34:21.269Z,5.93
2023-03-12T09:36:52.240Z,6.47
2023-03-12T09:39:23.726Z,5.18
2023-03-12T09:41:54.732Z,5.70
2023-03-12T09:44:33.793Z,5.72
2023-03-12T09:47:12.673Z,4.80
2023-03-12T09:49:47.861Z,4.57
2023-03-12T09:52:27.693Z,4.85
2023-03-12T09:55:05.529Z,5.10
2023-03-12T09:57:36.612Z,4.25
2023-03-12T10:00:11.010Z,4.35
2023-03-12T10:03:05.364Z,5.03
2023-03-12T10:05:40.692Z,4.97
2023-03-12T10:08:26.078Z,4.18
2023-03-12T10:11:08.499Z,4.13
2023-03-12T10:13:50.352Z,4.10
2023-03-12T10:16:32.058Z,4.82
2023-03-12T10:19:26.525Z,4.10
2023-03-12T10:22:04.052Z,4.47
2023-03-12T10:24:43.739Z,4.60
2023-03-12T10:27:18.283Z,4.95
2023-03-12T10:29:51.535Z,4.07
2023-03-12T10:32:28.107Z,3.58
2023-03-12T10:35:03.714Z,5.00
2023-03-12T10:37:39.425Z,4.60
2023-03-12T10:40:15.746Z,4.40
2023-03-12T10:42:46.153Z,4.30
2023-03-12T10:45:34.761Z,4.88
2023-03-12T10:48:08.964Z,4.78
2023-03-12T10:50:43.510Z,5.05
2023-03-12T10:53:24.157Z,4.32
2023-03-12T10:56:06.478Z,3.97
2023-03-12T10:58:41.768Z,3.50
2023-03-12T11:01:23.218Z,4.85
2023-03-12T11:03:54.347Z,4.60
2023-03-12T11:06:29.741Z,4.10
2023-03-12T11:09:16.619Z,5.35
2023-03-12T11:11:48.316Z,4.38
2023-03-12T11:14:21.793Z,4.20
2023-03-12T11:16:52.841Z,4.97
2023-03-12T11:19:31.989Z,6.30
2023-03-12T11:22:07.790Z,4.40
2023-03-12T11:24:38.502Z,4.25
2023-03-12T11:27:13.293Z,5.38
2023-03-12T11:29:48.786Z,4.68
2023-03-12T11:32:22.277Z,4.72
2023-03-12T11:34:53.604Z,4.82
2023-03-12T11:37:38.542Z,4.82
2023-03-12T11:40:20.973Z,4.75
2023-03-12T11:43:13.742Z,5.07
2023-03-12T11:45:55.910Z,5.20
2023-03-12T11:48:31.796Z,4.88
2023-03-12T11:51:18.288Z,6.18
2023-03-12T11:54:15.047Z,4.82
2023-03-12T11:56:49.489Z,4.22
2023-03-12T11:59:34.214Z,5.60
2023-03-12T12:02:17.147Z,6.78
2023-03-12T12:05:20.732Z,5.60
2023-03-12T12:08:12.640Z,5.03
2023-03-12T12:10:55.177Z,4.50
2023-03-12T12:13:35.576Z,5.70
2023-03-12T12:16:22.034Z,5.50
2023-03-12T12:19:05.795Z,5.93
2023-03-12T12:21:50.450Z,5.28
2023-03-12T12:24:37.610Z,4.97
2023-03-12T12:27:21.753Z,4.97
2023-03-12T12:30:13.379Z,4.50
2023-03-12T12:33:02.674Z,4.43
2023-03-12T12:35:38.521Z,4.45
2023-03-12T12:38:13.564Z,4.05
2023-03-12T12:40:47.640Z,4.43
2023-03-12T12:43:28.241Z,4.47
2023-03-12T12:46:03.202Z,4.43
2023-03-12T12:48:38.283Z,4.55
2023-03-12T12:51:10.877Z,4.47
2023-03-12T12:53:49.368Z,6.18
2023-03-12T12:56:26.614Z,4.00
2023-03-12T12:59:12.777Z,4.35
2023-03-12T13:01:43.672Z,4.03
2023-03-12T13:04:18.774Z,5.20
2023-03-12T13:07:02.021Z,5.40
2023-03-12T13:09:43.551Z,4.47
2023-03-12T13:12:21.365Z,3.88
2023-03-12T13:14:55.686Z,4.30
2023-03-12T13:17:31.795Z,4.75
2023-03-12T13:20:20.766Z,4.53
2023-03-12T13:23:02.948Z,4.03
2023-03-12T13:25:50.379Z,4.70
2023-03-12T13:31:26.978Z,3.42
2023-03-12T13:34:00.017Z,3.75
2023-03-12T13:36:33.734Z,4.13
2023-03-12T13:39:21.731Z,3.70
2023-03-12T13:41:53.377Z,4.10
2023-03-12T13:44:33.275Z,4.22
2023-03-12T13:47:08.303Z,5.00
2023-03-12T13:49:46.504Z,4.50
2023-03-12T13:52:26.945Z,4.47
2023-03-12T13:55:03.785Z,4.28
2023-03-12T14:00:18.618Z,3.30
2023-03-12T14:02:55.042Z,4.00
2023-03-12T14:05:25.496Z,4.03
2023-03-12T14:08:12.596Z,4.03
2023-03-12T14:10:56.878Z,3.08
2023-03-12T14:13:42.458Z,3.55
2023-03-12T14:16:21.633Z,4.00
2023-03-12T14:18:55.362Z,2.67
2023-03-12T14:21:32.345Z,3.80
2023-03-12T14:24:05.019Z,3.72
2023-03-12T14:26:37.992Z,2.67
2023-03-12T14:29:12.863Z,2.78
2023-03-12T14:31:43.912Z,2.67
2023-03-12T14:34:21.932Z,3.00
2023-03-12T14:36:58.994Z,2.85
2023-03-12T14:39:33.741Z,3.58
2023-03-12T14:42:05.648Z,3.22
2023-03-12T14:44:37.654Z,2.60
2023-03-12T14:47:11.597Z,3.13
2023-03-12T14:49:47.840Z,3.03
2023-03-12T14:52:25.356Z,2.80
2023-03-12T14:55:00.422Z,2.65
2023-03-12T14:57:31.052Z,3.00
2023-03-12T15:00:03.080Z,3.63
2023-03-12T15:02:34.604Z,2.75
2023-03-12T15:05:08.238Z,2.47
2023-03-12T15:07:40.302Z,2.50
2023-03-12T15:10:21.212Z,2.88
2023-03-12T15:12:52.177Z,2.78
2023-03-12T15:15:37.102Z,2.35
2023-03-12T15:18:10.664Z,2.97
2023-03-12T15:20:43.977Z,2.80
2023-03-12T15:23:16.194Z,2.33
2023-03-12T15:25:46.751Z,2.30
2023-03-12T15:28:31.568Z,3.45
2023-03-12T15:31:11.898Z,2.40
2023-03-12T15:33:42.957Z,2.10
2023-03-12T15:36:29.073Z,2.22
2023-03-12T15:39:05.720Z,2.15
2023-03-12T15:41:49.291Z,2.53
2023-03-12T15:44:22.602Z,2.42
2023-03-12T15:46:56.225Z,2.67
2023-03-12T15:49:29.893Z,2.30
2023-03-12T15:52:08.966Z,2.13
2023-03-12T15:54:40.741Z,2.33
2023-03-12T15:57:25.932Z,2.65
2023-03-12T16:00:27.507Z,2.40
2023-03-12T16:03:00.466Z,3.17
2023-03-12T16:05:33.433Z,2.40
2023-03-12T16:08:17.047Z,1.80
2023-03-12T16:10:47.732Z,2.15
2023-03-12T16:13:20.386Z,1.67
2023-03-12T16:15:51.239Z,2.15
2023-03-12T16:18:23.338Z,1.05
2023-03-12T16:20:55.595Z,1.33
2023-03-12T16:23:28.556Z,1.77
2023-03-12T16:25:59.040Z,7.60
2023-03-12T16:28:29.768Z,2.30
2023-03-12T16:31:00.043Z,4.90
2023-03-12T16:33:30.323Z,1.38
2023-03-12T16:36:00.672Z,1.38
2023-03-12T16:38:33.675Z,1.58
2023-03-12T16:41:04.019Z,1.30
2023-03-12T16:43:38.339Z,1.42
2023-03-12T16:46:11.356Z,1.60
2023-03-12T16:48:42.007Z,2.40
2023-03-12T16:51:17.478Z,1.48
2023-03-12T16:54:02.015Z,1.75
2023-03-12T16:56:38.953Z,2.28
2023-03-12T16:59:17.627Z,1.65
2023-03-12T17:01:47.966Z,2.08
2023-03-12T17:04:18.305Z,1.10
2023-03-12T17:06:48.713Z,1.20
2023-03-12T17:09:22.439Z,1.40
2023-03-12T17:11:55.521Z,1.05
2023-03-12T17:14:26.291Z,2.40
2023-03-12T17:16:56.596Z,11.68
2023-03-12T17:19:26.880Z,2.17
2023-03-12T17:21:57.656Z,3.75
2023-03-12T17:24:30.553Z,2.00
2023-03-12T17:27:00.851Z,2.15
2023-03-12T17:29:31.196Z,1.35
2023-03-12T17:32:01.539Z,1.20
2023-03-12T17:34:31.830Z,1.55
2023-03-12T17:37:02.660Z,1.10
2023-03-12T17:39:36.737Z,1.20
2023-03-12T17:42:07.278Z,1.30
2023-03-12T17:44:39.126Z,0.98
2023-03-12T17:47:09.545Z,1.02
2023-03-12T17:49:39.947Z,1.30
2023-03-12T17:52:10.845Z,0.70
2023-03-12T17:54:43.869Z,1.10
2023-03-12T17:57:14.162Z,0.60
2023-03-12T17:59:44.495Z,1.08
2023-03-12T18:02:16.737Z,1.02
2023-03-12T18:04:47.092Z,1.00
2023-03-12T18:07:17.737Z,1.63
2023-03-12T18:09:50.816Z,1.80
2023-03-12T18:12:21.028Z,1.13
2023-03-12T18:14:51.396Z,1.60
2023-03-12T18:17:21.711Z,1.35
2023-03-12T18:19:51.995Z,1.40
2023-03-12T18:22:22.232Z,1.27
2023-03-12T18:24:55.046Z,1.42
2023-03-12T18:27:25.305Z,1.58
2023-03-12T18:29:55.647Z,1.38
2023-03-12T18:32:25.983Z,1.67
2023-03-12T18:34:56.908Z,1.45
2023-03-12T18:37:27.189Z,1.70
2023-03-12T18:40:00.166Z,2.50
2023-03-12T18:42:30.587Z,2.72
2023-03-12T18:45:00.852Z,2.53
2023-03-12T18:47:31.489Z,2.20
2023-03-12T18:50:01.752Z,3.60
2023-03-12T18:52:32.233Z,3.60
2023-03-12T18:55:05.154Z,2.88
2023-03-12T18:57:35.502Z,3.45
2023-03-12T19:00:06.419Z,3.03
2023-03-12T19:02:36.756Z,3.75
2023-03-12T19:05:07.639Z,3.53
2023-03-12T19:07:39.102Z,3.88
2023-03-12T19:10:14.455Z,4.45
2023-03-12T19:12:52.837Z,4.25
2023-03-12T19:15:26.109Z,4.15
2023-03-12T19:17:58.408Z,4.97
2023-03-12T19:20:28.870Z,5.38
2023-03-12T19:22:59.613Z,4.65
2023-03-12T19:25:33.857Z,6.15
2023-03-12T19:28:04.938Z,6.22
2023-03-12T19:30:35.280Z,6.38
2023-03-12T19:33:05.931Z,7.32
2023-03-12T19:35:37.593Z,7.70
2023-03-12T19:38:08.147Z,7.22
2023-03-12T19:40:41.157Z,7.78
2023-03-12T19:43:14.012Z,7.32
2023-03-12T19:45:47.358Z,8.38
2023-03-12T19:48:21.267Z,6.40
2023-03-12T19:50:54.152Z,7.13
2023-03-12T19:53:27.293Z,7.75
2023-03-12T19:56:03.437Z,8.20
2023-03-12T19:58:36.942Z,6.70
2023-03-12T20:01:13.286Z,7.45
2023-03-12T20:03:45.397Z,6.93
2023-03-12T20:06:18.016Z,6.38
2023-03-12T20:08:49.233Z,7.82
2023-03-12T20:11:22.255Z,7.00
2023-03-12T20:13:52.633Z,6.75
2023-03-12T20:16:23.056Z,8.15
2023-03-12T20:18:53.471Z,7.63
2023-03-12T20:21:23.754Z,7.05
2023-03-12T20:23:54.207Z,6.65
2023-03-12T20:26:27.287Z,6.38
2023-03-12T20:28:57.704Z,6.97
2023-03-12T20:31:28.097Z,7.18
2023-03-12T20:33:58.751Z,6.22
2023-03-12T20:36:29.196Z,5.50
2023-03-12T20:38:59.451Z,6.38
2023-03-12T20:41:32.455Z,6.32
2023-03-12T20:44:02.879Z,5.97
2023-03-12T20:46:33.370Z,5.63
2023-03-12T20:49:03.798Z,5.80
2023-03-12T20:51:34.219Z,6.13
2023-03-12T20:54:04.593Z,6.22
2023-03-12T20:56:39.324Z,7.13
2023-03-12T20:59:09.687Z,5.65
2023-03-12T21:01:40.169Z,7.28
2023-03-12T21:04:10.679Z,6.43
2023-03-12T21:06:41.073Z,6.63
2023-03-12T21:09:11.760Z,6.35
2023-03-12T21:11:44.661Z,6.80
2023-03-12T21:14:14.956Z,5.32
2023-03-12T21:16:45.275Z,6.78
2023-03-12T21:19:15.727Z,6.35
2023-03-12T21:21:46.111Z,5.93
2023-03-12T21:24:16.406Z,6.10
2023-03-12T21:26:49.352Z,7.22
2023-03-12T21:29:19.718Z,6.40
2023-03-12T21:31:51.890Z,5.57
2023-03-12T21:34:22.377Z,6.25
2023-03-12T21:36:52.724Z,6.90
2023-03-12T21:39:23.269Z,6.15
2023-03-12T21:41:56.288Z,5.47
2023-03-12T21:44:26.752Z,5.82
2023-03-12T21:46:57.139Z,5.70
2023-03-12T21:49:27.736Z,6.40
2023-03-12T21:51:57.973Z,6.47
2023-03-12T21:54:28.348Z,6.18
2023-03-12T21:57:02.771Z,5.45
2023-03-12T21:59:33.739Z,6.78
2023-03-12T22:02:04.105Z,5.25
2023-03-12T22:04:34.963Z,6.15
2023-03-12T22:07:05.289Z,5.65
2023-03-12T22:09:35.656Z,4.68
2023-03-12T22:12:09.016Z,6.88
2023-03-12T22:14:39.441Z,5.72
2023-03-12T22:17:09.743Z,5.95
2023-03-12T22:19:42.000Z,5.75
2023-03-12T22:22:12.437Z,5.63
2023-03-12T22:24:42.867Z,5.35
2023-03-12T22:27:15.811Z,4.72
2023-03-12T22:29:46.199Z,5.80
2023-03-12T22:32:16.522Z,5.00
2023-03-12T22:34:46.870Z,6.38
2023-03-12T22:37:17.538Z,5.45
2023-03-12T22:39:47.881Z,5.05
2023-03-12T22:42:20.831Z,5.13
2023-03-12T22:44:51.140Z,5.05
2023-03-12T22:47:21.565Z,5.20
2023-03-12T22:49:53.298Z,4.55
2023-03-12T22:52:23.723Z,4.53
2023-03-12T22:54:54.207Z,4.55
2023-03-12T22:57:27.117Z,4.65
2023-03-12T22:59:57.492Z,5.40
2023-03-12T23:02:27.879Z,4.82
2023-03-12T23:04:58.398Z,4.57
2023-03-12T23:07:28.696Z,4.40
2023-03-12T23:09:59.057Z,4.50
2023-03-12T23:12:32.487Z,4.90
2023-03-12T23:15:02.894Z,4.30
2023-03-12T23:17:33.364Z,4.50
2023-03-12T23:20:03.970Z,4.38
2023-03-12T23:22:35.529Z,4.15
2023-03-12T23:25:05.896Z,4.50
2023-03-12T23:27:38.789Z,4.97
2023-03-12T23:30:10.784Z,4.60
2023-03-12T23:32:41.244Z,4.80
2023-03-12T23:35:12.217Z,5.53
2023-03-12T23:37:42.550Z,3.88
2023-03-12T23:40:16.943Z,4.47
2023-03-12T23:42:49.844Z,4.03
2023-03-12T23:45:20.280Z,4.30
2023-03-12T23:47:50.680Z,3.58
2023-03-12T23:50:21.195Z,3.65
2023-03-12T23:52:51.487Z,3.78
2023-03-12T23:55:21.787Z,3.42
2023-03-12T23:57:54.681Z,4.13
